createdAt,value
2017-07-20T00:04:06.888Z,99900
2017-07-20T00:09:10.978Z,99889
2017-07-20T00:14:14.194Z,99884
2017-07-20T00:19:17.383Z,99883
2017-07-20T00:24:20.550Z,99881
2017-07-20T00:29:24.535Z,99873
2017-07-20T00:34:27.722Z,99871
2017-07-20T00:39:30.904Z,99889
2017-07-20T00:44:34.095Z,99881
2017-07-20T00:49:38.038Z,99866
2017-07-20T00:54:41.248Z,99866
2017-07-20T00:59:44.435Z,99860
2017-07-20T01:04:48.470Z,99863
2017-07-20T01:09:51.655Z,99866
2017-07-20T01:14:55.600Z,99865
2017-07-20T01:19:58.794Z,99864
2017-07-20T01:25:02.730Z,99869
2017-07-20T01:30:05.930Z,99880
2017-07-20T01:35:09.909Z,99895
2017-07-20T01:40:13.094Z,99893
2017-07-20T01:45:16.277Z,99906
2017-07-20T01:50:19.481Z,99899
2017-07-20T01:55:22.677Z,99918
2017-07-20T02:00:26.665Z,99920
2017-07-20T02:05:29.857Z,99919
2017-07-20T02:10:33.074Z,99901
2017-07-20T02:15:36.335Z,99888
2017-07-20T02:20:39.505Z,99873
2017-07-20T02:25:42.697Z,99870
2017-07-20T02:30:45.899Z,99869
2017-07-20T02:35:49.216Z,99876
2017-07-20T02:40:52.399Z,99851
2017-07-20T02:45:55.590Z,99812
2017-07-20T02:50:58.779Z,99825
2017-07-20T02:56:02.812Z,99859
2017-07-20T03:01:06.739Z,99857
2017-07-20T03:06:09.926Z,99862
2017-07-20T03:11:13.908Z,99881
2017-07-20T03:16:17.130Z,99854
2017-07-20T03:21:20.309Z,99855
2017-07-20T03:26:23.486Z,99842
2017-07-20T03:31:26.695Z,99855
2017-07-20T03:36:30.630Z,99856
2017-07-20T03:41:33.815Z,99861
2017-07-20T03:46:37.770Z,99868
2017-07-20T03:51:40.997Z,99867
2017-07-20T03:56:44.191Z,99876
2017-07-20T04:01:47.538Z,99876
2017-07-20T04:06:50.748Z,99881
2017-07-20T04:11:53.973Z,99892
2017-07-20T04:16:57.931Z,99870
2017-07-20T04:22:01.114Z,99875
2017-07-20T04:27:05.066Z,99873
2017-07-20T04:32:08.463Z,99872
2017-07-20T04:37:11.657Z,99860
2017-07-20T04:42:15.595Z,99880
2017-07-20T04:47:18.802Z,99875
2017-07-20T04:52:22.007Z,99892
2017-07-20T04:57:25.192Z,99892
2017-07-20T05:02:29.197Z,99903
2017-07-20T05:07:32.372Z,99909
2017-07-20T05:12:35.569Z,99903
2017-07-20T05:17:38.754Z,99909
2017-07-20T05:22:41.941Z,99925
2017-07-20T05:27:45.887Z,99921
2017-07-20T05:32:49.087Z,99935
2017-07-20T05:37:52.264Z,99933
2017-07-20T05:42:55.502Z,99932
2017-07-20T05:47:58.725Z,99920
2017-07-20T05:53:01.926Z,99937
2017-07-20T05:58:05.124Z,99932
2017-07-20T06:03:08.315Z,99927
2017-07-20T06:08:12.294Z,99932
2017-07-20T06:13:15.482Z,99929
2017-07-20T06:18:18.714Z,99934
2017-07-20T06:23:21.905Z,99938
2017-07-20T06:28:25.120Z,99953
2017-07-20T06:33:28.306Z,99964
2017-07-20T06:38:31.511Z,99965
2017-07-20T06:43:34.718Z,99968
2017-07-20T06:48:37.906Z,99968
2017-07-20T06:53:41.887Z,99977
2017-07-20T06:58:45.067Z,99975
2017-07-20T07:03:48.278Z,99989
2017-07-20T07:08:51.477Z,100006
2017-07-20T07:13:54.658Z,99997
2017-07-20T07:18:57.889Z,99991
2017-07-20T07:24:01.101Z,99985
2017-07-20T07:29:04.309Z,99988
2017-07-20T07:34:07.500Z,99983
2017-07-20T07:39:10.702Z,99982
2017-07-20T07:44:13.897Z,99984
2017-07-20T07:49:17.857Z,99987
2017-07-20T07:54:21.057Z,99993
2017-07-20T07:59:24.230Z,99995
2017-07-20T08:04:28.198Z,100004
2017-07-20T08:09:31.475Z,100010
2017-07-20T08:14:35.496Z,100005
2017-07-20T08:19:39.524Z,100002
2017-07-20T08:24:43.475Z,99997
2017-07-20T08:29:46.667Z,100005
2017-07-20T08:34:49.892Z,100018
2017-07-20T08:39:53.107Z,100030
2017-07-20T08:44:56.305Z,100040
2017-07-20T08:49:59.615Z,100036
2017-07-20T08:55:02.796Z,100043
2017-07-20T09:00:06.005Z,100042
2017-07-20T09:05:09.252Z,100032
2017-07-20T09:10:12.513Z,100010
2017-07-20T09:15:16.477Z,100000
2017-07-20T09:20:19.667Z,99995
2017-07-20T09:25:22.868Z,100010
2017-07-20T09:30:26.061Z,100018
2017-07-20T09:35:29.378Z,100020
2017-07-20T09:40:32.576Z,100022
2017-07-20T09:45:35.782Z,100034
2017-07-20T09:50:38.989Z,100043
2017-07-20T09:55:42.221Z,100060
2017-07-20T10:00:45.404Z,100061
2017-07-20T10:05:48.601Z,100055
2017-07-20T10:10:52.556Z,100061
2017-07-20T10:15:55.765Z,100065
2017-07-20T10:20:58.961Z,100078
2017-07-20T10:26:02.174Z,100086
2017-07-20T10:31:05.381Z,100101
2017-07-20T10:36:08.592Z,100092
2017-07-20T10:41:11.808Z,100094
2017-07-20T10:46:14.984Z,100093
2017-07-20T10:51:18.183Z,100093
2017-07-20T10:56:22.138Z,100097
2017-07-20T11:01:25.329Z,100094
2017-07-20T11:06:28.569Z,100101
2017-07-20T11:11:31.773Z,100099
2017-07-20T11:16:34.964Z,100099
2017-07-20T11:21:38.177Z,100096
2017-07-20T11:26:41.386Z,100110
2017-07-20T11:31:44.605Z,100104
2017-07-20T11:36:47.797Z,100105
2017-07-20T11:41:51.049Z,100101
2017-07-20T11:46:54.203Z,100100
2017-07-20T11:51:57.405Z,100104
2017-07-20T11:57:00.634Z,100101
2017-07-20T12:02:03.961Z,100093
2017-07-20T12:07:07.168Z,100089
2017-07-20T12:12:10.355Z,100086
2017-07-20T12:17:13.581Z,100091
2017-07-20T12:22:16.775Z,100085
2017-07-20T12:27:19.992Z,100083
2017-07-20T12:32:23.203Z,100082
2017-07-20T12:37:26.391Z,100075
2017-07-20T12:42:29.590Z,100070
2017-07-20T12:47:32.767Z,100055
2017-07-20T12:52:36.746Z,100068
2017-07-20T12:57:39.952Z,100049
2017-07-20T13:02:43.158Z,100042
2017-07-20T13:07:46.373Z,100034
2017-07-20T13:12:49.554Z,100037
2017-07-20T13:17:52.762Z,100042
2017-07-20T13:22:55.961Z,100035
2017-07-20T13:27:59.153Z,100019
2017-07-20T13:33:02.346Z,100031
2017-07-20T13:38:05.561Z,100025
2017-07-20T13:43:08.764Z,100025
2017-07-20T13:48:11.981Z,100027
2017-07-20T13:53:15.181Z,100014
2017-07-20T13:58:18.851Z,100006
2017-07-20T14:03:22.060Z,100019
2017-07-20T14:08:25.253Z,100007
2017-07-20T14:13:28.521Z,100016
2017-07-20T14:18:31.793Z,100017
2017-07-20T14:23:35.082Z,100014
2017-07-20T14:28:38.279Z,100005
2017-07-20T14:33:41.466Z,100008
2017-07-20T14:38:44.677Z,100022
2017-07-20T14:43:47.865Z,100007
2017-07-20T14:48:51.059Z,99998
2017-07-20T14:53:55.014Z,100001
2017-07-20T14:58:58.229Z,99995
2017-07-20T15:04:01.422Z,99990
2017-07-20T15:09:04.634Z,99987
2017-07-20T15:14:07.829Z,99980
2017-07-20T15:19:11.114Z,99986
2017-07-20T15:24:15.143Z,99984
2017-07-20T15:29:19.108Z,99984
2017-07-20T15:34:22.285Z,99974
2017-07-20T15:39:25.468Z,99975
2017-07-20T15:44:29.447Z,99973
2017-07-20T15:49:32.641Z,99975
2017-07-20T15:54:35.879Z,99973
2017-07-20T15:59:39.058Z,99963
2017-07-20T16:04:42.394Z,99961
2017-07-20T16:09:45.661Z,99951
2017-07-20T16:14:48.849Z,99951
2017-07-20T16:19:52.832Z,99951
2017-07-20T16:24:56.083Z,99957
2017-07-20T16:30:00.074Z,99940
2017-07-20T16:35:03.324Z,99951
2017-07-20T16:40:07.252Z,99945
2017-07-20T16:45:10.457Z,99944
2017-07-20T16:50:14.391Z,99941
2017-07-20T16:55:17.593Z,99941
2017-07-20T17:00:20.797Z,99950
2017-07-20T17:05:24.019Z,99945
2017-07-20T17:10:28.090Z,99950
2017-07-20T17:15:31.290Z,99957
2017-07-20T17:20:34.509Z,99950
2017-07-20T17:25:37.706Z,99952
2017-07-20T17:30:40.933Z,99960
2017-07-20T17:35:44.115Z,99951
2017-07-20T17:40:47.331Z,99964
2017-07-20T17:45:50.548Z,99970
2017-07-20T17:50:53.729Z,99967
2017-07-20T17:55:56.928Z,99969
2017-07-20T18:01:00.141Z,99971
2017-07-20T18:06:03.341Z,99980
2017-07-20T18:11:06.544Z,99997
2017-07-20T18:16:09.761Z,100005
2017-07-20T18:21:13.218Z,100000
2017-07-20T18:26:17.173Z,100009
2017-07-20T18:31:20.388Z,100012
2017-07-20T18:36:23.579Z,100022
2017-07-20T18:41:26.793Z,100019
2017-07-20T18:46:29.990Z,100036
2017-07-20T18:51:33.186Z,100043
2017-07-20T18:56:36.409Z,100049
2017-07-20T19:01:39.628Z,100052
2017-07-20T19:06:42.842Z,100052
2017-07-20T19:11:46.070Z,100066
2017-07-20T19:16:49.286Z,100082
2017-07-20T19:21:52.455Z,100079
2017-07-20T19:26:55.717Z,100087
2017-07-20T19:31:59.649Z,100102
2017-07-20T19:37:03.610Z,100103
2017-07-20T19:42:06.800Z,100124
2017-07-20T19:47:09.993Z,100129
2017-07-20T19:52:13.970Z,100137
2017-07-20T19:57:17.119Z,100144
2017-07-20T20:02:21.116Z,100147
2017-07-20T20:07:24.282Z,100158
2017-07-20T20:12:27.493Z,100165
2017-07-20T20:17:30.715Z,100160
2017-07-20T20:22:33.921Z,100161
2017-07-20T20:27:37.131Z,100170
2017-07-20T20:32:40.329Z,100171
2017-07-20T20:37:43.561Z,100174
2017-07-20T20:42:46.741Z,100179
2017-07-20T20:47:49.958Z,100181
2017-07-20T20:52:53.106Z,100199
2017-07-20T20:57:56.465Z,100201
2017-07-20T21:02:59.633Z,100200
2017-07-20T21:08:02.861Z,100202
2017-07-20T21:13:06.109Z,100209
2017-07-20T21:18:09.301Z,100209
2017-07-20T21:23:12.502Z,100205
2017-07-20T21:28:15.797Z,100202
2017-07-20T21:33:19.017Z,100218
2017-07-20T21:38:22.158Z,100221
2017-07-20T21:43:25.377Z,100222
2017-07-20T21:48:29.348Z,100225
2017-07-20T21:53:32.548Z,100230
2017-07-20T21:58:35.736Z,100232
2017-07-20T22:03:38.939Z,100239
2017-07-20T22:08:42.883Z,100242
2017-07-20T22:13:46.070Z,100228
2017-07-20T22:18:49.305Z,100236
2017-07-20T22:23:52.687Z,100233
2017-07-20T22:28:56.629Z,100236
2017-07-20T22:33:59.823Z,100245
2017-07-20T22:39:03.035Z,100238
2017-07-20T22:44:06.212Z,100242
2017-07-20T22:54:41.435Z,100239
2017-07-20T22:59:44.611Z,100245
2017-07-20T23:04:48.653Z,100257
2017-07-20T23:09:52.587Z,100266
2017-07-20T23:14:55.778Z,100266
2017-07-20T23:19:59.017Z,100269
2017-07-20T23:25:02.180Z,100274
2017-07-20T23:30:06.165Z,100281
2017-07-20T23:35:09.357Z,100290
2017-07-20T23:40:12.689Z,100294
2017-07-20T23:45:15.883Z,100288
2017-07-20T23:50:19.065Z,100287
2017-07-20T23:55:22.256Z,100293
